createdAt,value
2022-09-25T00:02:01.670Z,95325.25
2022-09-25T00:07:04.978Z,95324.72
2022-09-25T00:12:08.278Z,95312.19
2022-09-25T00:17:12.091Z,95317.81
2022-09-25T00:22:21.754Z,95303.84
2022-09-25T00:27:25.581Z,95298.53
2022-09-25T00:32:29.485Z,95296.25
2022-09-25T00:37:33.842Z,95283.81
2022-09-25T00:42:37.567Z,95283.97
2022-09-25T00:47:41.215Z,95278.78
2022-09-25T00:52:44.906Z,95277.41
2022-09-25T00:57:48.857Z,95281.22
2022-09-25T01:02:53.547Z,95281.31
2022-09-25T01:07:57.366Z,95273.84
2022-09-25T01:13:00.735Z,95275.75
2022-09-25T01:18:04.366Z,95282.03
2022-09-25T01:23:08.323Z,95282.38
2022-09-25T01:28:12.159Z,95278.63
2022-09-25T01:33:15.371Z,95270.66
2022-09-25T01:38:19.549Z,95271.47
2022-09-25T01:43:23.100Z,95266.66
2022-09-25T01:48:26.615Z,95262.97
2022-09-25T01:53:29.892Z,95256.03
2022-09-25T01:58:34.364Z,95252.56
2022-09-25T02:03:39.191Z,95249.88
2022-09-25T02:08:44.299Z,95253.38
2022-09-25T02:13:47.906Z,95254.69
2022-09-25T02:19:09.089Z,95262.19
2022-09-25T02:24:15.489Z,95272.16
2022-09-25T02:29:19.160Z,95272.13
2022-09-25T02:34:22.374Z,95274.81
2022-09-25T02:39:25.769Z,95285.28
2022-09-25T02:44:29.446Z,95283.94
2022-09-25T02:49:32.710Z,95271.00
2022-09-25T02:54:35.425Z,95267.75
2022-09-25T02:59:38.641Z,95259.19
2022-09-25T03:04:41.842Z,95261.31
2022-09-25T03:09:46.880Z,95253.09
2022-09-25T03:14:53.423Z,95247.31
2022-09-25T03:19:56.959Z,95242.25
2022-09-25T03:25:00.134Z,95234.56
2022-09-25T03:30:03.431Z,95237.84
2022-09-25T03:35:06.208Z,95233.78
2022-09-25T03:40:09.438Z,95234.34
2022-09-25T03:45:12.125Z,95229.22
2022-09-25T03:50:14.802Z,95242.41
2022-09-25T03:55:17.905Z,95233.59
2022-09-25T04:00:20.602Z,95228.16
2022-09-25T04:05:23.671Z,95218.69
2022-09-25T04:10:26.360Z,95222.47
2022-09-25T04:15:29.078Z,95220.88
2022-09-25T04:20:31.778Z,95212.56
2022-09-25T04:25:34.510Z,95216.41
2022-09-25T04:30:37.201Z,95219.94
2022-09-25T04:35:39.889Z,95216.13
2022-09-25T04:40:42.623Z,95225.22
2022-09-25T04:45:48.982Z,95229.50
2022-09-25T04:50:51.723Z,95231.88
2022-09-25T04:55:55.967Z,95224.63
2022-09-25T05:00:58.719Z,95228.56
2022-09-25T05:06:01.558Z,95235.22
2022-09-25T05:11:04.522Z,95236.28
2022-09-25T05:16:07.458Z,95236.78
2022-09-25T05:21:10.360Z,95235.66
2022-09-25T05:26:13.175Z,95230.78
2022-09-25T05:31:16.703Z,95225.38
2022-09-25T05:36:19.765Z,95222.28
2022-09-25T05:41:22.454Z,95232.75
2022-09-25T05:46:25.246Z,95239.41
2022-09-25T05:51:27.947Z,95234.06
2022-09-25T05:56:30.671Z,95232.94
2022-09-25T06:01:33.630Z,95229.22
2022-09-25T06:06:36.463Z,95231.75
2022-09-25T06:11:40.800Z,95233.38
2022-09-25T06:16:43.932Z,95234.66
2022-09-25T06:21:47.347Z,95237.88
2022-09-25T06:26:50.270Z,95229.72
2022-09-25T06:31:53.037Z,95231.78
2022-09-25T06:36:55.757Z,95232.44
2022-09-25T06:41:58.477Z,95225.38
2022-09-25T06:47:01.785Z,95225.38
2022-09-25T06:52:09.729Z,95226.63
2022-09-25T06:57:12.803Z,95221.53
2022-09-25T07:02:54.476Z,95220.91
2022-09-25T07:07:57.154Z,95222.25
2022-09-25T07:13:00.450Z,95209.81
2022-09-25T07:18:03.653Z,95214.75
2022-09-25T07:23:06.836Z,95217.41
2022-09-25T07:28:10.038Z,95216.34
2022-09-25T07:33:13.482Z,95215.97
2022-09-25T07:38:16.770Z,95213.34
2022-09-25T07:43:19.940Z,95216.16
2022-09-25T07:48:23.360Z,95221.50
2022-09-25T07:53:26.487Z,95214.09
2022-09-25T07:58:29.714Z,95219.31
2022-09-25T08:03:33.023Z,95210.09
2022-09-25T08:08:36.153Z,95221.91
2022-09-25T08:13:39.616Z,95219.53
2022-09-25T08:18:42.921Z,95212.63
2022-09-25T08:23:48.203Z,95212.88
2022-09-25T08:28:52.171Z,95210.25
2022-09-25T08:33:55.598Z,95202.94
2022-09-25T08:39:09.077Z,95210.53
2022-09-25T08:44:12.408Z,95215.13
2022-09-25T08:49:15.761Z,95220.25
2022-09-25T08:54:19.055Z,95219.13
2022-09-25T08:59:23.365Z,95224.41
2022-09-25T09:04:26.853Z,95216.78
2022-09-25T09:09:30.146Z,95223.56
2022-09-25T09:14:33.901Z,95212.25
2022-09-25T09:19:38.272Z,95203.59
2022-09-25T09:24:41.457Z,95201.50
2022-09-25T09:29:44.733Z,95201.06
2022-09-25T09:35:05.779Z,95199.50
2022-09-25T09:40:09.902Z,95193.13
2022-09-25T09:45:13.644Z,95190.63
2022-09-25T09:50:17.328Z,95173.53
2022-09-25T09:55:20.557Z,95175.34
2022-09-25T10:00:24.180Z,95177.75
2022-09-25T10:05:27.383Z,95179.47
2022-09-25T10:10:30.763Z,95170.00
2022-09-25T10:15:34.026Z,95175.28
2022-09-25T10:20:37.292Z,95165.97
2022-09-25T10:25:40.470Z,95168.69
2022-09-25T10:30:43.780Z,95171.06
2022-09-25T10:35:48.689Z,95171.59
2022-09-25T10:40:52.164Z,95168.50
2022-09-25T10:45:57.333Z,95165.66
2022-09-25T10:51:01.102Z,95162.91
2022-09-25T10:56:05.147Z,95165.03
2022-09-25T11:01:13.601Z,95157.69
2022-09-25T11:06:17.643Z,95157.56
2022-09-25T11:11:20.801Z,95156.91
2022-09-25T11:16:24.551Z,95152.00
2022-09-25T11:21:27.831Z,95146.06
2022-09-25T11:26:31.257Z,95140.44
2022-09-25T11:31:35.058Z,95131.66
2022-09-25T11:36:38.993Z,95127.94
2022-09-25T11:41:42.280Z,95119.41
2022-09-25T11:46:47.715Z,95128.28
2022-09-25T11:51:51.322Z,95130.06
2022-09-25T11:56:54.987Z,95124.50
2022-09-25T12:01:58.216Z,95124.44
2022-09-25T12:07:01.769Z,95121.09
2022-09-25T12:12:08.772Z,95118.13
2022-09-25T12:17:11.934Z,95113.31
2022-09-25T12:22:15.824Z,95107.59
2022-09-25T12:27:19.275Z,95107.09
2022-09-25T12:32:22.698Z,95100.00
2022-09-25T12:37:27.702Z,95099.16
2022-09-25T12:42:32.406Z,95099.00
2022-09-25T12:47:36.415Z,95090.06
2022-09-25T12:52:39.830Z,95085.94
2022-09-25T12:57:45.918Z,95090.97
2022-09-25T13:02:49.523Z,95082.75
2022-09-25T13:07:52.965Z,95093.91
2022-09-25T13:12:56.934Z,95083.41
2022-09-25T13:18:00.374Z,95082.94
2022-09-25T13:23:04.708Z,95087.75
2022-09-25T13:28:08.273Z,95089.16
2022-09-25T13:33:11.835Z,95094.81
2022-09-25T13:38:35.442Z,95098.94
2022-09-25T13:43:38.802Z,95116.00
2022-09-25T13:48:42.395Z,95123.69
2022-09-25T13:53:45.969Z,95125.72
2022-09-25T13:58:50.069Z,95131.13
2022-09-25T14:03:53.721Z,95128.75
2022-09-25T14:08:58.244Z,95127.94
2022-09-25T14:14:01.990Z,95132.22
2022-09-25T14:19:05.479Z,95127.75
2022-09-25T14:24:09.116Z,95122.94
2022-09-25T14:29:12.790Z,95112.66
2022-09-25T14:34:16.576Z,95111.53
2022-09-25T14:39:20.321Z,95111.09
2022-09-25T14:44:25.958Z,95102.06
2022-09-25T14:49:30.327Z,95107.44
2022-09-25T14:54:36.790Z,95090.00
2022-09-25T14:59:42.461Z,95094.63
2022-09-25T15:04:46.268Z,95096.41
2022-09-25T15:09:49.909Z,95090.28
2022-09-25T15:14:53.537Z,95081.22
2022-09-25T15:19:57.739Z,95082.00
2022-09-25T15:25:01.349Z,95086.06
2022-09-25T15:30:06.716Z,95091.47
2022-09-25T15:35:10.163Z,95085.66
2022-09-25T15:40:14.996Z,95081.53
2022-09-25T15:45:19.355Z,95096.03
2022-09-25T15:50:22.969Z,95090.88
2022-09-25T15:55:27.091Z,95081.66
2022-09-25T16:00:48.818Z,95088.16
2022-09-25T16:05:55.533Z,95093.34
2022-09-25T16:10:59.128Z,95090.91
2022-09-25T16:16:02.604Z,95088.22
2022-09-25T16:21:06.815Z,95099.47
2022-09-25T16:26:11.372Z,95102.59
2022-09-25T16:31:16.499Z,95102.41
2022-09-25T16:36:20.209Z,95105.13
2022-09-25T16:41:23.938Z,95110.00
2022-09-25T16:46:28.388Z,95102.66
2022-09-25T16:51:32.485Z,95111.81
2022-09-25T16:56:36.347Z,95099.03
2022-09-25T17:01:40.421Z,95103.47
2022-09-25T17:06:47.848Z,95105.38
2022-09-25T17:11:51.925Z,95112.38
2022-09-25T17:16:55.481Z,95115.28
2022-09-25T17:21:59.559Z,95115.28
2022-09-25T17:27:03.455Z,95118.28
2022-09-25T17:32:09.203Z,95116.78
2022-09-25T17:37:12.962Z,95111.78
2022-09-25T17:42:17.667Z,95107.78
2022-09-25T17:47:22.393Z,95115.75
2022-09-25T17:52:26.673Z,95119.56
2022-09-25T17:57:30.686Z,95123.16
2022-09-25T18:02:34.445Z,95125.66
2022-09-25T18:07:47.363Z,95130.66
2022-09-25T18:12:51.134Z,95134.13
2022-09-25T18:17:56.349Z,95139.06
2022-09-25T18:22:59.820Z,95154.56
2022-09-25T18:28:03.923Z,95151.19
2022-09-25T18:33:08.788Z,95164.00
2022-09-25T18:38:12.604Z,95154.31
2022-09-25T18:43:16.286Z,95155.28
2022-09-25T18:48:19.688Z,95151.47
2022-09-25T18:53:22.797Z,95156.34
2022-09-25T18:58:26.538Z,95160.13
2022-09-25T19:03:30.728Z,95163.41
2022-09-25T19:08:34.371Z,95161.53
2022-09-25T19:13:41.370Z,95162.31
2022-09-25T19:18:45.680Z,95163.31
2022-09-25T19:23:52.374Z,95160.84
2022-09-25T19:28:55.662Z,95164.75
2022-09-25T19:34:01.281Z,95176.22
2022-09-25T19:39:05.074Z,95173.53
2022-09-25T19:44:13.190Z,95183.13
2022-09-25T19:49:16.835Z,95174.19
2022-09-25T19:54:19.503Z,95183.78
2022-09-25T19:59:22.248Z,95181.38
2022-09-25T20:04:24.940Z,95176.78
2022-09-25T20:09:27.614Z,95180.19
2022-09-25T20:14:30.277Z,95174.41
2022-09-25T20:19:33.077Z,95175.78
2022-09-25T20:24:35.813Z,95182.41
2022-09-25T20:29:38.714Z,95174.00
2022-09-25T20:34:45.627Z,95184.94
2022-09-25T20:39:48.330Z,95184.41
2022-09-25T20:44:51.620Z,95194.75
2022-09-25T20:49:54.359Z,95195.44
2022-09-25T20:54:57.088Z,95190.72
2022-09-25T21:00:01.833Z,95189.38
2022-09-25T21:05:04.592Z,95189.81
2022-09-25T21:10:07.267Z,95189.31
2022-09-25T21:15:10.574Z,95184.00
2022-09-25T21:20:13.473Z,95186.19
2022-09-25T21:25:16.879Z,95191.41
2022-09-25T21:30:19.621Z,95188.03
2022-09-25T21:35:22.620Z,95188.81
2022-09-25T21:40:25.767Z,95185.09
2022-09-25T21:45:28.509Z,95187.00
2022-09-25T21:50:31.202Z,95184.38
2022-09-25T21:55:33.964Z,95179.28
2022-09-25T22:00:36.625Z,95183.50
2022-09-25T22:05:41.921Z,95181.97
2022-09-25T22:10:45.325Z,95185.16
2022-09-25T22:15:47.989Z,95184.16
2022-09-25T22:20:55.150Z,95181.75
2022-09-25T22:25:57.818Z,95183.63
2022-09-25T22:31:00.576Z,95177.53
2022-09-25T22:36:13.294Z,95181.53
2022-09-25T22:41:16.069Z,95181.00
2022-09-25T22:46:18.840Z,95182.19
2022-09-25T22:51:21.565Z,95183.25
2022-09-25T22:56:24.258Z,95163.72
2022-09-25T23:01:27.352Z,95168.28
2022-09-25T23:06:32.898Z,95162.47
2022-09-25T23:11:35.640Z,95167.63
2022-09-25T23:16:38.532Z,95158.38
2022-09-25T23:21:41.333Z,95153.97
2022-09-25T23:26:46.755Z,95164.31
2022-09-25T23:31:49.674Z,95158.34
2022-09-25T23:36:52.494Z,95156.44
2022-09-25T23:41:55.233Z,95149.69
2022-09-25T23:46:58.089Z,95141.63
2022-09-25T23:52:00.918Z,95143.22
2022-09-25T23:57:03.774Z,95135.38
